createdAt,value
2019-04-19T00:01:28.775Z,7.53
2019-04-19T00:04:06.935Z,7.47
2019-04-19T00:06:39.157Z,7.17
2019-04-19T00:09:24.659Z,7.07
2019-04-19T00:11:44.207Z,6.30
2019-04-19T00:14:08.570Z,7.50
2019-04-19T00:16:38.438Z,6.80
2019-04-19T00:19:38.525Z,6.60
2019-04-19T00:22:04.774Z,6.67
2019-04-19T00:24:07.994Z,7.70
2019-04-19T00:26:37.878Z,7.17
2019-04-19T00:29:16.236Z,7.20
2019-04-19T00:31:47.223Z,7.50
2019-04-19T00:34:08.369Z,7.03
2019-04-19T00:36:38.292Z,7.40
2019-04-19T00:39:35.646Z,7.60
2019-04-19T00:42:22.219Z,7.07
2019-04-19T00:44:56.774Z,7.80
2019-04-19T00:47:23.255Z,7.00
2019-04-19T00:49:55.405Z,7.43
2019-04-19T00:52:23.463Z,7.30
2019-04-19T00:54:52.876Z,7.17
2019-04-19T00:57:20.443Z,6.93
2019-04-19T00:59:45.274Z,7.20
2019-04-19T01:02:16.660Z,7.57
2019-04-19T01:04:41.354Z,7.00
2019-04-19T01:07:18.730Z,6.77
2019-04-19T01:09:49.908Z,6.90
2019-04-19T01:12:22.724Z,7.50
2019-04-19T01:14:50.853Z,6.90
2019-04-19T01:17:25.563Z,6.90
2019-04-19T01:19:48.936Z,7.17
2019-04-19T01:22:18.284Z,7.10
2019-04-19T01:24:47.605Z,7.53
2019-04-19T01:27:19.584Z,7.37
2019-04-19T01:29:48.890Z,7.67
2019-04-19T01:32:18.274Z,7.83
2019-04-19T01:34:46.733Z,6.87
2019-04-19T01:37:20.636Z,7.60
2019-04-19T01:40:05.828Z,7.27
2019-04-19T01:42:36.816Z,8.20
2019-04-19T01:45:22.225Z,8.07
2019-04-19T01:47:59.971Z,8.00
2019-04-19T01:50:50.777Z,8.00
2019-04-19T01:53:22.865Z,7.33
2019-04-19T01:55:37.216Z,7.43
2019-04-19T01:58:08.264Z,7.10
2019-04-19T02:00:39.734Z,8.50
2019-04-19T02:03:07.568Z,8.53
2019-04-19T02:05:36.140Z,8.53
2019-04-19T02:08:09.424Z,8.10
2019-04-19T02:11:26.894Z,7.80
2019-04-19T02:13:52.127Z,7.97
2019-04-19T02:16:17.994Z,9.60
2019-04-19T02:18:41.618Z,9.33
2019-04-19T02:21:12.940Z,8.13
2019-04-19T02:23:45.475Z,8.03
2019-04-19T02:26:14.628Z,7.40
2019-04-19T02:28:42.995Z,7.40
2019-04-19T02:31:40.287Z,7.87
2019-04-19T02:34:19.182Z,8.57
2019-04-19T02:36:47.537Z,8.17
2019-04-19T02:39:14.142Z,7.80
2019-04-19T02:41:38.707Z,7.70
2019-04-19T02:51:44.968Z,8.63
2019-04-19T02:54:22.694Z,7.53
2019-04-19T03:02:32.269Z,8.20
2019-04-19T03:07:01.110Z,8.07
2019-04-19T03:09:32.837Z,7.60
2019-04-19T03:12:12.577Z,8.00
2019-04-19T03:14:46.496Z,8.10
2019-04-19T03:17:19.073Z,8.60
2019-04-19T03:19:44.220Z,8.40
2019-04-19T03:22:16.410Z,8.60
2019-04-19T03:24:47.857Z,8.47
2019-04-19T03:27:09.609Z,8.80
2019-04-19T03:29:35.201Z,8.47
2019-04-19T03:32:44.856Z,8.60
2019-04-19T03:34:57.384Z,7.97
2019-04-19T03:37:21.240Z,9.83
2019-04-19T03:40:00.696Z,8.27
2019-04-19T03:42:34.888Z,8.60
2019-04-19T03:45:01.681Z,9.10
2019-04-19T03:47:37.750Z,8.47
2019-04-19T03:50:03.060Z,9.00
2019-04-19T03:52:33.341Z,8.57
2019-04-19T03:55:04.787Z,8.67
2019-04-19T03:57:27.300Z,8.30
2019-04-19T03:59:45.866Z,9.00
2019-04-19T04:02:20.079Z,8.00
2019-04-19T04:04:53.717Z,9.43
2019-04-19T04:07:21.893Z,9.27
2019-04-19T04:09:57.320Z,8.87
2019-04-19T04:12:44.262Z,8.30
2019-04-19T04:15:40.501Z,9.27
2019-04-19T04:17:58.182Z,9.70
2019-04-19T04:20:30.645Z,9.63
2019-04-19T04:23:03.526Z,9.30
2019-04-19T04:25:41.249Z,8.67
2019-04-19T04:28:08.977Z,9.23
2019-04-19T04:30:37.958Z,8.60
2019-04-19T04:33:10.406Z,8.60
2019-04-19T04:35:49.462Z,9.20
2019-04-19T04:38:13.719Z,8.50
2019-04-19T04:40:32.136Z,8.90
2019-04-19T04:43:15.069Z,8.50
2019-04-19T04:46:05.255Z,9.20
2019-04-19T04:48:32.414Z,9.03
2019-04-19T04:51:15.379Z,9.17
2019-04-19T04:53:44.812Z,9.53
2019-04-19T04:56:17.418Z,9.20
2019-04-19T04:58:47.818Z,10.03
2019-04-19T05:01:29.140Z,10.30
2019-04-19T05:04:04.467Z,10.53
2019-04-19T05:06:34.378Z,9.20
2019-04-19T05:09:04.560Z,8.57
2019-04-19T05:11:33.994Z,9.27
2019-04-19T05:14:08.190Z,9.13
2019-04-19T05:19:08.153Z,9.00
2019-04-19T05:21:36.340Z,8.97
2019-04-19T05:24:09.326Z,9.20
2019-04-19T05:29:06.300Z,10.27
2019-04-19T05:31:31.170Z,9.63
2019-04-19T05:34:19.271Z,11.03
2019-04-19T05:36:43.668Z,9.33
2019-04-19T05:39:19.983Z,10.23
2019-04-19T05:41:59.826Z,10.30
2019-04-19T05:45:09.285Z,9.83
2019-04-19T05:47:22.725Z,10.13
2019-04-19T05:49:52.392Z,10.20
2019-04-19T05:52:24.274Z,10.00
2019-04-19T05:54:34.753Z,10.17
2019-04-19T05:57:25.657Z,10.40
2019-04-19T05:59:44.595Z,10.60
2019-04-19T06:02:16.807Z,10.60
2019-04-19T06:05:01.389Z,10.23
2019-04-19T06:07:24.534Z,11.10
2019-04-19T06:09:36.763Z,10.53
2019-04-19T06:12:14.606Z,10.60
2019-04-19T06:15:01.109Z,10.30
2019-04-19T06:17:36.798Z,11.40
2019-04-19T06:20:13.931Z,10.50
2019-04-19T06:22:39.459Z,10.70
2019-04-19T06:25:08.542Z,11.13
2019-04-19T06:27:55.393Z,12.00
2019-04-19T06:30:16.131Z,11.00
2019-04-19T06:32:46.115Z,11.67
2019-04-19T06:35:05.383Z,10.40
2019-04-19T06:37:27.625Z,10.93
2019-04-19T06:40:04.912Z,10.97
2019-04-19T06:42:36.036Z,10.77
2019-04-19T06:45:13.448Z,11.50
2019-04-19T06:47:33.739Z,11.37
2019-04-19T06:49:57.360Z,12.77
2019-04-19T06:52:31.391Z,12.07
2019-04-19T06:54:57.887Z,11.50
2019-04-19T06:57:32.589Z,11.03
2019-04-19T07:00:11.578Z,11.60
2019-04-19T07:02:28.370Z,12.90
2019-04-19T07:05:17.607Z,11.77
2019-04-19T07:07:50.744Z,13.30
2019-04-19T07:10:30.415Z,13.03
2019-04-19T07:12:50.459Z,12.90
2019-04-19T07:15:30.123Z,12.77
2019-04-19T07:17:46.176Z,13.20
2019-04-19T07:20:16.726Z,13.40
2019-04-19T07:22:48.364Z,12.67
2019-04-19T07:25:25.767Z,13.97
2019-04-19T07:27:44.278Z,13.40
2019-04-19T07:30:03.886Z,13.70
2019-04-19T07:32:39.126Z,13.57
2019-04-19T07:35:15.684Z,12.80
2019-04-19T07:37:47.360Z,13.70
2019-04-19T07:40:26.966Z,13.30
2019-04-19T07:42:51.306Z,13.40
2019-04-19T07:45:24.024Z,14.00
2019-04-19T07:47:57.521Z,14.70
2019-04-19T07:50:24.836Z,13.90
2019-04-19T07:52:55.435Z,13.53
2019-04-19T07:55:20.742Z,13.57
2019-04-19T07:58:24.969Z,15.27
2019-04-19T08:01:00.749Z,14.60
2019-04-19T08:03:25.959Z,14.30
2019-04-19T08:08:32.541Z,14.90
2019-04-19T08:13:31.594Z,15.00
2019-04-19T08:15:55.007Z,14.50
2019-04-19T08:28:10.560Z,15.17
2019-04-19T08:30:34.805Z,15.70
2019-04-19T08:32:57.611Z,17.00
2019-04-19T08:35:27.570Z,16.30
2019-04-19T08:38:03.393Z,15.47
2019-04-19T08:40:43.255Z,16.90
2019-04-19T08:43:17.347Z,14.97
2019-04-19T08:45:36.344Z,15.00
2019-04-19T08:48:34.794Z,15.40
2019-04-19T08:50:58.469Z,15.20
2019-04-19T08:53:43.993Z,15.40
2019-04-19T08:56:11.729Z,15.10
2019-04-19T08:58:47.992Z,15.03
2019-04-19T09:01:20.928Z,15.90
2019-04-19T09:03:54.166Z,14.83
2019-04-19T09:06:56.577Z,15.00
2019-04-19T09:08:47.550Z,15.60
2019-04-19T09:11:16.648Z,15.97
2019-04-19T09:13:52.183Z,15.63
2019-04-19T09:16:23.260Z,16.10
2019-04-19T09:18:59.518Z,16.00
2019-04-19T09:21:18.157Z,16.80
2019-04-19T09:23:42.455Z,17.27
2019-04-19T09:26:23.514Z,17.40
2019-04-19T09:28:57.656Z,15.93
2019-04-19T09:31:25.364Z,16.60
2019-04-19T09:33:40.681Z,17.00
2019-04-19T09:36:12.047Z,17.33
2019-04-19T09:38:55.538Z,15.93
2019-04-19T09:41:19.378Z,17.20
2019-04-19T09:43:52.211Z,17.07
2019-04-19T09:46:10.299Z,16.40
2019-04-19T09:48:55.406Z,16.70
2019-04-19T09:51:29.063Z,16.40
2019-04-19T09:54:11.409Z,17.00
2019-04-19T09:56:31.157Z,18.00
2019-04-19T09:58:53.985Z,17.60
2019-04-19T10:01:14.579Z,16.47
2019-04-19T10:03:49.339Z,16.50
2019-04-19T10:06:15.150Z,16.60
2019-04-19T10:08:43.893Z,16.47
2019-04-19T10:11:12.838Z,17.40
2019-04-19T10:13:42.076Z,16.70
2019-04-19T10:16:24.443Z,15.80
2019-04-19T10:18:59.295Z,15.77
2019-04-19T10:21:49.439Z,15.70
2019-04-19T10:24:20.968Z,17.80
2019-04-19T10:26:56.809Z,16.43
2019-04-19T10:29:31.861Z,17.40
2019-04-19T10:32:00.007Z,18.03
2019-04-19T10:34:28.711Z,17.30
2019-04-19T10:36:59.941Z,17.37
2019-04-19T10:39:29.801Z,17.00
2019-04-19T10:41:58.746Z,16.50
2019-04-19T10:44:27.414Z,16.10
2019-04-19T10:46:56.665Z,15.07
2019-04-19T10:49:34.307Z,15.27
2019-04-19T10:52:04.882Z,15.83
2019-04-19T10:54:33.625Z,16.67
2019-04-19T10:57:33.669Z,14.43
2019-04-19T11:00:03.629Z,14.93
2019-04-19T11:02:34.464Z,14.17
2019-04-19T11:05:05.230Z,15.53
2019-04-19T11:07:35.245Z,15.83
2019-04-19T11:10:04.894Z,14.90
2019-04-19T11:12:34.337Z,13.73
2019-04-19T11:15:04.432Z,14.17
2019-04-19T11:17:33.817Z,14.90
2019-04-19T11:20:17.017Z,14.20
2019-04-19T11:22:32.937Z,15.13
2019-04-19T11:25:02.046Z,15.10
2019-04-19T11:27:31.138Z,14.60
2019-04-19T11:30:03.348Z,13.10
2019-04-19T11:32:57.201Z,12.53
2019-04-19T11:35:28.041Z,12.77
2019-04-19T11:37:57.218Z,12.57
2019-04-19T11:40:27.124Z,12.90
2019-04-19T11:42:55.864Z,12.30
2019-04-19T11:45:25.930Z,11.60
2019-04-19T11:47:55.400Z,11.87
2019-04-19T11:50:25.151Z,10.20
2019-04-19T11:53:14.297Z,11.50
2019-04-19T11:55:46.531Z,11.90
2019-04-19T11:58:16.752Z,12.47
2019-04-19T12:01:12.079Z,11.80
2019-04-19T12:03:43.506Z,11.30
2019-04-19T12:06:12.156Z,12.90
2019-04-19T12:08:42.763Z,11.23
2019-04-19T12:11:12.635Z,9.93
2019-04-19T12:13:41.470Z,9.00
2019-04-19T12:16:10.875Z,9.37
2019-04-19T12:18:41.718Z,10.80
2019-04-19T12:21:11.277Z,10.80
2019-04-19T12:23:41.089Z,10.00
2019-04-19T12:26:09.866Z,8.87
2019-04-19T12:28:39.682Z,9.57
2019-04-19T12:31:09.446Z,9.47
2019-04-19T12:33:39.465Z,9.77
2019-04-19T12:36:08.526Z,8.43
2019-04-19T12:38:37.899Z,8.23
2019-04-19T12:41:07.976Z,8.33
2019-04-19T12:43:38.010Z,8.80
2019-04-19T12:46:07.351Z,8.63
2019-04-19T12:48:37.489Z,8.90
2019-04-19T12:51:07.829Z,8.50
2019-04-19T12:53:37.000Z,9.60
2019-04-19T12:56:06.267Z,8.30
2019-04-19T12:58:35.804Z,9.50
2019-04-19T13:01:14.220Z,10.30
2019-04-19T13:03:54.765Z,9.60
2019-04-19T13:06:27.253Z,9.10
2019-04-19T13:08:57.078Z,8.70
2019-04-19T13:11:27.107Z,8.60
2019-04-19T13:13:57.544Z,9.60
2019-04-19T13:16:26.333Z,8.90
2019-04-19T13:18:56.206Z,8.70
2019-04-19T13:21:26.231Z,8.00
2019-04-19T13:23:56.004Z,9.30
2019-04-19T13:26:25.254Z,9.00
2019-04-19T13:28:53.957Z,8.07
2019-04-19T13:31:23.136Z,8.13
2019-04-19T13:33:53.147Z,7.90
2019-04-19T13:36:35.821Z,8.10
2019-04-19T13:39:25.820Z,7.40
2019-04-19T13:41:58.954Z,7.43
2019-04-19T13:44:29.105Z,6.77
2019-04-19T13:46:58.856Z,8.00
2019-04-19T13:49:28.590Z,7.40
2019-04-19T13:51:58.647Z,8.10
2019-04-19T13:54:27.508Z,7.90
2019-04-19T13:56:57.568Z,7.30
2019-04-19T13:59:41.045Z,7.17
2019-04-19T14:01:56.739Z,7.33
2019-04-19T14:04:25.857Z,7.67
2019-04-19T14:06:54.564Z,7.80
2019-04-19T14:09:23.315Z,7.40
2019-04-19T14:11:53.237Z,7.80
2019-04-19T14:14:23.205Z,8.93
2019-04-19T14:16:51.987Z,8.53
2019-04-19T14:19:20.677Z,9.00
2019-04-19T14:21:49.304Z,9.20
2019-04-19T14:24:17.964Z,8.77
2019-04-19T14:26:51.754Z,8.80
2019-04-19T14:29:17.208Z,8.90
2019-04-19T14:31:46.377Z,8.23
